createdAt,value
2022-08-11T00:01:20.040Z,22.30
2022-08-11T00:04:06.227Z,22.30
2022-08-11T00:06:52.879Z,22.20
2022-08-11T00:09:40.170Z,22.10
2022-08-11T00:12:26.046Z,22.00
2022-08-11T00:15:12.428Z,21.90
2022-08-11T00:18:00.498Z,21.90
2022-08-11T00:20:45.991Z,21.80
2022-08-11T00:23:31.362Z,21.80
2022-08-11T00:26:17.595Z,21.70
2022-08-11T00:29:11.057Z,21.70
2022-08-11T00:31:58.315Z,21.60
2022-08-11T00:34:46.957Z,21.60
2022-08-11T00:37:32.945Z,21.60
2022-08-11T00:40:32.550Z,21.50
2022-08-11T00:43:24.320Z,21.40
2022-08-11T00:46:34.293Z,21.40
2022-08-11T00:49:27.644Z,21.30
2022-08-11T00:52:33.597Z,21.30
2022-08-11T00:56:01.296Z,21.30
2022-08-11T00:59:35.604Z,21.20
2022-08-11T01:02:27.044Z,21.20
2022-08-11T01:05:37.907Z,21.20
2022-08-11T01:09:00.809Z,21.10
2022-08-11T01:11:56.483Z,21.10
2022-08-11T01:15:20.503Z,21.00
2022-08-11T01:18:53.833Z,21.00
2022-08-11T01:21:41.655Z,21.00
2022-08-11T01:24:47.566Z,20.90
2022-08-11T01:27:38.612Z,21.00
2022-08-11T01:31:01.347Z,20.90
2022-08-11T01:34:21.715Z,20.90
2022-08-11T01:37:49.443Z,20.80
2022-08-11T01:41:10.949Z,20.80
2022-08-11T01:44:40.798Z,20.70
2022-08-11T01:47:52.535Z,20.70
2022-08-11T01:50:57.306Z,20.60
2022-08-11T01:53:59.435Z,20.50
2022-08-11T01:57:15.656Z,20.40
2022-08-11T02:00:09.459Z,20.40
2022-08-11T02:03:23.436Z,20.40
2022-08-11T02:06:56.097Z,20.40
2022-08-11T02:10:36.378Z,20.30
2022-08-11T02:13:46.991Z,20.20
2022-08-11T02:17:19.247Z,20.20
2022-08-11T02:20:55.655Z,20.20
2022-08-11T02:24:03.742Z,20.20
2022-08-11T02:27:07.746Z,20.10
2022-08-11T02:30:09.967Z,20.10
2022-08-11T02:33:24.729Z,20.00
2022-08-11T02:36:24.772Z,20.00
2022-08-11T02:39:13.054Z,19.90
2022-08-11T02:42:32.695Z,19.80
2022-08-11T02:45:27.353Z,19.70
2022-08-11T02:48:51.610Z,19.70
2022-08-11T02:51:42.907Z,19.60
2022-08-11T02:54:37.962Z,19.60
2022-08-11T02:57:41.588Z,19.60
2022-08-11T03:00:29.575Z,19.50
2022-08-11T03:03:25.655Z,19.50
2022-08-11T03:06:24.337Z,19.50
2022-08-11T03:09:31.544Z,19.40
2022-08-11T03:12:44.538Z,19.40
2022-08-11T03:15:56.773Z,19.40
2022-08-11T03:19:14.571Z,19.30
2022-08-11T03:22:19.220Z,19.30
2022-08-11T03:25:19.926Z,19.30
2022-08-11T03:28:24.524Z,19.30
2022-08-11T03:31:28.024Z,19.30
2022-08-11T03:34:21.850Z,19.20
2022-08-11T03:37:51.697Z,19.20
2022-08-11T03:42:02.672Z,19.30
2022-08-11T03:44:44.030Z,19.20
2022-08-11T03:47:55.895Z,19.10
2022-08-11T03:50:54.825Z,19.10
2022-08-11T03:54:13.171Z,19.10
2022-08-11T03:57:36.516Z,19.00
2022-08-11T04:00:36.376Z,19.00
2022-08-11T04:03:31.051Z,19.00
2022-08-11T04:06:38.102Z,18.90
2022-08-11T04:09:48.636Z,18.80
2022-08-11T04:12:52.970Z,18.80
2022-08-11T04:16:12.623Z,18.90
2022-08-11T04:19:35.010Z,18.80
2022-08-11T04:22:48.822Z,18.90
2022-08-11T04:26:16.197Z,18.70
2022-08-11T04:30:02.944Z,18.80
2022-08-11T04:32:56.415Z,18.70
2022-08-11T04:36:15.945Z,18.70
2022-08-11T04:39:33.995Z,18.70
2022-08-11T04:43:21.988Z,18.70
2022-08-11T04:46:25.959Z,18.60
2022-08-11T04:50:10.587Z,18.70
2022-08-11T04:53:30.959Z,18.70
2022-08-11T04:56:44.809Z,18.80
2022-08-11T05:00:08.307Z,18.70
2022-08-11T05:03:22.104Z,18.80
2022-08-11T05:06:54.943Z,18.70
2022-08-11T05:09:39.995Z,18.80
2022-08-11T05:12:42.342Z,18.90
2022-08-11T05:15:55.686Z,18.90
2022-08-11T05:19:09.725Z,18.90
2022-08-11T05:22:16.202Z,19.00
2022-08-11T05:26:45.430Z,19.00
2022-08-11T05:29:00.407Z,19.00
2022-08-11T05:32:23.910Z,19.00
2022-08-11T05:35:11.062Z,19.00
2022-08-11T05:38:43.915Z,18.90
2022-08-11T05:41:49.903Z,18.90
2022-08-11T05:44:56.648Z,18.90
2022-08-11T05:48:01.466Z,18.90
2022-08-11T05:51:24.220Z,19.00
2022-08-11T05:54:35.499Z,19.00
2022-08-11T05:57:45.463Z,19.10
2022-08-11T06:00:45.662Z,19.00
2022-08-11T06:03:58.222Z,19.10
2022-08-11T06:06:55.031Z,19.30
2022-08-11T06:10:00.264Z,19.20
2022-08-11T06:12:46.643Z,19.20
2022-08-11T06:15:34.690Z,19.20
2022-08-11T06:18:20.983Z,19.20
2022-08-11T06:21:11.163Z,19.30
2022-08-11T06:23:56.962Z,19.30
2022-08-11T06:27:09.065Z,19.30
2022-08-11T06:29:55.880Z,19.40
2022-08-11T06:32:55.439Z,19.50
2022-08-11T06:35:47.635Z,19.50
2022-08-11T06:38:39.135Z,19.60
2022-08-11T06:41:56.940Z,19.70
2022-08-11T06:44:46.586Z,19.80
2022-08-11T06:47:32.119Z,20.00
2022-08-11T06:50:41.937Z,20.10
2022-08-11T06:53:34.658Z,20.00
2022-08-11T06:56:46.457Z,20.20
2022-08-11T06:59:53.279Z,20.10
2022-08-11T07:03:03.283Z,20.30
2022-08-11T07:06:02.982Z,20.40
2022-08-11T07:09:47.231Z,20.50
2022-08-11T07:12:58.699Z,20.70
2022-08-11T07:16:12.167Z,20.80
2022-08-11T07:19:09.450Z,21.10
2022-08-11T07:22:15.787Z,21.10
2022-08-11T07:25:34.568Z,21.10
2022-08-11T07:28:44.955Z,21.30
2022-08-11T07:31:43.380Z,21.70
2022-08-11T07:34:35.579Z,22.00
2022-08-11T07:37:24.808Z,22.40
2022-08-11T07:40:11.436Z,22.50
2022-08-11T07:42:58.922Z,22.70
2022-08-11T07:46:04.996Z,22.80
2022-08-11T07:49:10.368Z,23.10
2022-08-11T07:52:15.147Z,23.30
2022-08-11T07:55:05.788Z,23.30
2022-08-11T07:58:17.012Z,23.50
2022-08-11T08:01:24.907Z,23.60
2022-08-11T08:04:32.106Z,23.70
2022-08-11T08:07:41.429Z,23.90
2022-08-11T08:10:45.798Z,24.00
2022-08-11T08:13:52.132Z,24.20
2022-08-11T08:16:57.583Z,24.30
2022-08-11T08:19:50.404Z,24.50
2022-08-11T08:22:38.964Z,24.60
2022-08-11T08:25:26.466Z,24.70
2022-08-11T08:28:15.886Z,24.90
2022-08-11T08:31:01.852Z,25.00
2022-08-11T08:33:47.568Z,25.10
2022-08-11T08:36:32.904Z,25.30
2022-08-11T08:39:22.419Z,25.40
2022-08-11T08:42:17.177Z,25.60
2022-08-11T08:45:06.350Z,25.80
2022-08-11T08:47:59.220Z,26.00
2022-08-11T08:51:08.463Z,26.00
2022-08-11T08:53:56.421Z,26.20
2022-08-11T08:56:44.935Z,26.20
2022-08-11T08:59:44.958Z,26.20
2022-08-11T09:02:34.477Z,26.20
2022-08-11T09:05:21.336Z,26.40
2022-08-11T09:08:07.807Z,26.60
2022-08-11T09:11:14.476Z,26.50
2022-08-11T09:14:03.138Z,26.70
2022-08-11T09:16:53.571Z,26.70
2022-08-11T09:19:39.009Z,26.90
2022-08-11T09:22:44.122Z,27.00
2022-08-11T09:25:50.802Z,27.10
2022-08-11T09:28:36.884Z,27.20
2022-08-11T09:31:22.943Z,27.20
2022-08-11T09:34:10.531Z,27.30
2022-08-11T09:37:54.728Z,27.40
2022-08-11T09:40:30.693Z,27.50
2022-08-11T09:43:37.879Z,27.60
2022-08-11T09:46:27.339Z,27.80
2022-08-11T09:49:13.020Z,27.70
2022-08-11T09:52:05.221Z,27.40
2022-08-11T09:54:52.163Z,27.50
2022-08-11T09:58:03.595Z,27.60
2022-08-11T10:00:51.071Z,27.70
2022-08-11T10:03:40.551Z,28.00
2022-08-11T10:06:54.273Z,28.20
2022-08-11T10:09:44.442Z,28.30
2022-08-11T10:12:36.046Z,28.30
2022-08-11T10:15:34.244Z,28.30
2022-08-11T10:18:42.648Z,28.50
2022-08-11T10:21:38.685Z,28.50
2022-08-11T10:24:42.334Z,28.80
2022-08-11T10:28:28.946Z,28.70
2022-08-11T10:30:52.305Z,29.00
2022-08-11T10:33:59.211Z,29.10
2022-08-11T10:36:48.191Z,29.10
2022-08-11T10:39:35.501Z,29.10
2022-08-11T10:42:57.514Z,29.20
2022-08-11T10:46:05.270Z,29.20
2022-08-11T10:48:50.908Z,29.50
2022-08-11T10:51:58.751Z,29.40
2022-08-11T10:55:03.685Z,29.70
2022-08-11T10:58:07.450Z,29.80
2022-08-11T11:00:56.837Z,30.00
2022-08-11T11:03:43.535Z,30.20
2022-08-11T11:06:57.077Z,30.30
2022-08-11T11:09:47.473Z,30.40
2022-08-11T11:13:00.440Z,30.20
2022-08-11T11:16:05.941Z,30.30
2022-08-11T11:19:00.722Z,30.20
2022-08-11T11:21:51.076Z,30.40
2022-08-11T11:25:18.764Z,30.70
2022-08-11T11:28:34.537Z,31.10
2022-08-11T11:31:47.154Z,31.20
2022-08-11T11:34:53.543Z,31.10
2022-08-11T11:37:40.700Z,31.20
2022-08-11T11:40:44.347Z,31.10
2022-08-11T11:43:30.178Z,31.30
2022-08-11T11:46:16.943Z,31.30
2022-08-11T11:49:15.863Z,31.30
2022-08-11T11:52:03.055Z,31.50
2022-08-11T11:54:50.666Z,31.70
2022-08-11T11:57:58.966Z,31.90
2022-08-11T12:01:05.019Z,31.90
2022-08-11T12:03:51.861Z,31.90
2022-08-11T12:06:37.950Z,32.10
2022-08-11T12:09:23.370Z,32.10
2022-08-11T12:12:28.805Z,32.10
2022-08-11T12:15:14.224Z,31.90
2022-08-11T12:18:00.307Z,31.90
2022-08-11T12:20:46.055Z,32.10
2022-08-11T12:23:52.760Z,32.00
2022-08-11T12:27:16.492Z,32.30
2022-08-11T12:30:11.016Z,32.60
2022-08-11T12:32:57.431Z,32.50
2022-08-11T12:36:00.351Z,32.40
2022-08-11T12:38:50.313Z,32.60
2022-08-11T12:41:57.150Z,32.80
2022-08-11T12:45:03.111Z,33.00
2022-08-11T12:48:57.714Z,33.20
2022-08-11T12:52:11.693Z,33.30
2022-08-11T12:55:02.810Z,33.20
2022-08-11T12:58:07.076Z,33.10
2022-08-11T13:01:12.811Z,33.10
2022-08-11T13:04:17.345Z,33.20
2022-08-11T13:07:03.247Z,33.10
2022-08-11T13:09:49.006Z,32.60
2022-08-11T13:12:50.145Z,32.70
2022-08-11T13:15:39.188Z,32.90
2022-08-11T13:18:24.967Z,33.00
2022-08-11T13:21:11.630Z,33.20
2022-08-11T13:24:05.922Z,33.20
2022-08-11T13:26:51.893Z,33.40
2022-08-11T13:29:38.493Z,33.40
2022-08-11T13:32:26.307Z,32.90
2022-08-11T13:35:16.977Z,32.60
2022-08-11T13:38:19.313Z,32.40
2022-08-11T13:41:28.659Z,32.20
2022-08-11T13:44:21.672Z,32.40
2022-08-11T13:47:13.941Z,32.40
2022-08-11T13:49:59.812Z,32.40
2022-08-11T13:52:49.000Z,32.40
2022-08-11T13:55:52.098Z,32.80
2022-08-11T13:58:40.652Z,33.10
2022-08-11T14:02:19.597Z,33.10
2022-08-11T14:05:00.143Z,33.20
2022-08-11T14:07:49.278Z,33.40
2022-08-11T14:10:37.911Z,33.40
2022-08-11T14:13:45.243Z,33.30
2022-08-11T14:16:42.879Z,33.20
2022-08-11T14:19:28.757Z,32.90
2022-08-11T14:22:16.194Z,32.90
2022-08-11T14:25:02.416Z,32.80
2022-08-11T14:28:32.642Z,32.90
2022-08-11T14:30:58.967Z,33.30
2022-08-11T14:33:59.368Z,33.50
2022-08-11T14:36:52.755Z,33.70
2022-08-11T14:39:47.852Z,33.80
2022-08-11T14:42:52.276Z,33.40
2022-08-11T14:45:59.110Z,33.40
2022-08-11T14:48:45.403Z,33.20
2022-08-11T14:51:31.604Z,33.10
2022-08-11T14:54:36.033Z,33.20
2022-08-11T14:57:54.852Z,33.60
2022-08-11T15:00:28.218Z,33.70
2022-08-11T15:03:15.331Z,33.90
2022-08-11T15:06:02.415Z,33.90
2022-08-11T15:08:57.180Z,33.70
2022-08-11T15:12:02.341Z,33.50
2022-08-11T15:15:08.055Z,33.30
2022-08-11T15:17:55.643Z,33.40
2022-08-11T15:21:00.217Z,33.60
2022-08-11T15:24:04.236Z,33.60
2022-08-11T15:27:08.982Z,33.90
2022-08-11T15:30:18.267Z,34.00
2022-08-11T15:33:38.856Z,34.30
2022-08-11T15:36:45.500Z,34.10
2022-08-11T15:40:05.222Z,34.20
2022-08-11T15:43:40.622Z,33.60
2022-08-11T15:46:39.477Z,33.70
2022-08-11T15:50:11.154Z,34.00
2022-08-11T15:52:45.866Z,33.90
2022-08-11T15:55:34.432Z,34.10
2022-08-11T15:58:39.747Z,34.20
2022-08-11T16:01:44.887Z,34.20
2022-08-11T16:04:31.759Z,34.20
2022-08-11T16:07:26.665Z,34.40
2022-08-11T16:10:19.503Z,34.30
2022-08-11T16:13:06.757Z,34.20
2022-08-11T16:16:13.734Z,34.00
2022-08-11T16:19:01.576Z,33.90
2022-08-11T16:21:50.525Z,33.80
2022-08-11T16:27:03.663Z,33.30
2022-08-11T16:27:49.386Z,33.40
2022-08-11T16:30:37.351Z,33.40
2022-08-11T16:33:50.520Z,33.30
2022-08-11T16:36:49.895Z,33.40
2022-08-11T16:39:36.099Z,33.40
2022-08-11T16:43:00.151Z,33.40
2022-08-11T16:46:04.452Z,33.30
2022-08-11T16:48:52.646Z,33.30
2022-08-11T16:51:38.090Z,33.20
2022-08-11T16:54:23.721Z,33.30
2022-08-11T16:57:35.760Z,33.20
2022-08-11T17:00:22.091Z,33.20
2022-08-11T17:03:26.962Z,33.30
2022-08-11T17:06:32.035Z,33.00
2022-08-11T17:09:40.156Z,33.10
2022-08-11T17:12:47.550Z,32.90
2022-08-11T17:15:51.878Z,32.60
2022-08-11T17:18:44.146Z,32.30
2022-08-11T17:22:05.718Z,32.30
2022-08-11T17:24:51.451Z,32.40
2022-08-11T17:27:38.896Z,32.40
2022-08-11T17:30:46.830Z,32.40
2022-08-11T17:33:52.531Z,32.20
2022-08-11T17:36:44.553Z,32.20
2022-08-11T17:39:31.816Z,32.00
2022-08-11T17:42:36.662Z,31.90
2022-08-11T17:45:42.048Z,31.80
2022-08-11T17:48:29.694Z,31.80
2022-08-11T17:51:38.834Z,31.70
2022-08-11T17:54:43.726Z,31.60
2022-08-11T17:57:48.594Z,31.40
2022-08-11T18:00:35.013Z,31.40
2022-08-11T18:03:32.852Z,31.20
2022-08-11T18:06:19.491Z,31.20
2022-08-11T18:09:38.907Z,31.10
2022-08-11T18:12:42.738Z,30.90
2022-08-11T18:15:55.562Z,30.80
2022-08-11T18:18:59.981Z,30.60
2022-08-11T18:22:14.699Z,30.60
2022-08-11T18:25:33.618Z,30.50
2022-08-11T18:28:44.603Z,30.30
2022-08-11T18:31:53.450Z,30.30
2022-08-11T18:35:06.380Z,30.00
2022-08-11T18:38:11.310Z,29.80
2022-08-11T18:41:17.249Z,29.60
2022-08-11T18:44:27.252Z,29.40
2022-08-11T18:47:33.269Z,29.20
2022-08-11T18:50:39.556Z,29.10
2022-08-11T18:53:47.408Z,29.00
2022-08-11T18:56:52.387Z,29.00
2022-08-11T18:59:58.433Z,28.90
2022-08-11T19:03:04.896Z,28.70
2022-08-11T19:06:39.047Z,28.50
2022-08-11T19:09:36.047Z,28.50
2022-08-11T19:12:42.426Z,28.40
2022-08-11T19:15:55.299Z,28.30
2022-08-11T19:19:01.436Z,28.30
2022-08-11T19:22:07.676Z,28.10
2022-08-11T19:25:13.618Z,27.90
2022-08-11T19:28:18.095Z,27.70
2022-08-11T19:31:22.494Z,27.60
2022-08-11T19:34:27.485Z,27.50
2022-08-11T19:37:32.277Z,27.40
2022-08-11T19:40:37.136Z,27.40
2022-08-11T19:43:43.505Z,27.20
2022-08-11T19:46:49.268Z,27.20
2022-08-11T19:49:55.582Z,27.10
2022-08-11T19:53:00.059Z,27.00
2022-08-11T19:56:07.140Z,26.90
2022-08-11T19:59:12.247Z,26.80
2022-08-11T20:02:16.143Z,26.80
2022-08-11T20:05:20.451Z,26.70
2022-08-11T20:08:25.811Z,26.50
2022-08-11T20:11:33.180Z,26.50
2022-08-11T20:14:39.127Z,26.40
2022-08-11T20:17:47.443Z,26.30
2022-08-11T20:20:52.266Z,26.20
2022-08-11T20:23:59.300Z,26.10
2022-08-11T20:27:04.806Z,26.10
2022-08-11T20:30:08.810Z,26.00
2022-08-11T20:33:12.704Z,26.00
2022-08-11T20:36:17.308Z,25.80
2022-08-11T20:39:22.704Z,25.70
2022-08-11T20:42:30.471Z,25.60
2022-08-11T20:45:36.627Z,25.60
2022-08-11T20:48:58.152Z,25.50
2022-08-11T20:52:06.284Z,25.50
2022-08-11T20:55:18.895Z,25.40
2022-08-11T20:58:48.058Z,25.40
2022-08-11T21:01:56.284Z,25.30
2022-08-11T21:05:00.807Z,25.20
2022-08-11T21:08:09.731Z,25.10
2022-08-11T21:11:27.962Z,25.00
2022-08-11T21:14:31.807Z,24.90
2022-08-11T21:18:00.074Z,24.80
2022-08-11T21:21:04.899Z,24.80
2022-08-11T21:24:13.317Z,24.70
2022-08-11T21:27:24.681Z,24.60
2022-08-11T21:30:29.271Z,24.50
2022-08-11T21:33:33.339Z,24.40
2022-08-11T21:36:41.192Z,24.30
2022-08-11T21:39:48.044Z,24.30
2022-08-11T21:42:55.849Z,24.30
2022-08-11T21:46:01.839Z,24.30
2022-08-11T21:49:06.828Z,24.20
2022-08-11T21:52:10.987Z,24.20
2022-08-11T21:55:16.368Z,24.20
2022-08-11T21:58:21.393Z,24.10
2022-08-11T22:01:27.160Z,24.00
2022-08-11T22:04:38.780Z,23.90
2022-08-11T22:07:43.312Z,23.90
2022-08-11T22:10:47.246Z,23.80
2022-08-11T22:14:01.191Z,23.80
2022-08-11T22:17:11.765Z,23.80
2022-08-11T22:20:17.057Z,23.70
2022-08-11T22:23:21.561Z,23.60
2022-08-11T22:26:26.509Z,23.50
2022-08-11T22:29:49.910Z,23.50
2022-08-11T22:32:55.494Z,23.40
2022-08-11T22:36:01.926Z,23.40
2022-08-11T22:39:06.838Z,23.30
2022-08-11T22:42:10.910Z,23.30
2022-08-11T22:45:14.818Z,23.20
2022-08-11T22:48:20.287Z,23.10
2022-08-11T22:51:25.336Z,23.20
2022-08-11T22:54:29.899Z,23.10
2022-08-11T22:57:34.198Z,23.10
2022-08-11T23:00:38.060Z,23.00
2022-08-11T23:03:43.911Z,23.00
2022-08-11T23:06:48.449Z,23.00
2022-08-11T23:09:52.795Z,23.00
2022-08-11T23:12:57.302Z,23.00
2022-08-11T23:16:01.642Z,23.00
2022-08-11T23:19:06.784Z,22.90
2022-08-11T23:22:12.486Z,22.80
2022-08-11T23:25:17.549Z,22.80
2022-08-11T23:28:23.797Z,22.70
2022-08-11T23:31:29.685Z,22.70
2022-08-11T23:35:37.309Z,22.70
2022-08-11T23:38:22.182Z,22.70
2022-08-11T23:41:25.982Z,22.60
2022-08-11T23:44:30.164Z,22.60
2022-08-11T23:47:50.547Z,22.50
2022-08-11T23:50:55.340Z,22.50
2022-08-11T23:54:00.999Z,22.40
2022-08-11T23:57:12.719Z,22.40
